Terminal Aerodrome Forecast
Issued by NWS Melbourne, FL

Home | Current Version | Previous Version | Text Only | Print | Product List | Glossary On
Versions: 1 2 3 4 5 6 7 8 9 10 11 12 13 14 15 16
946
FTUS42 KMLB 110913 AAB
TAFDAB
TAF AMD
KDAB 110913Z 1109/1206 28004KT P6SM SKC
     FM112000 24004KT P6SM SKC=

USA.gov is the U.S. government's official web portal to all federal, state and local government web resources and services.